Latest Weather Observations for Cobar Airport

IDN60801

Issued at 7:32 pm EDT Wednesday 10 February 2016 (issued every 30 minutes, with the page automatically refreshed every 10 minutes)

About weather observations | Map of weather stations | Latest weather observations for NSW | Other Formats
Station Details ID: 048237 Name: COBAR AIRPORT AWS Lat: -31.54 Lon: 145.80 Height: 218.0 m
Data from the previous 72 hours. | See also: Recent months at Cobar Airport
Date/Time
EDT
Temp
°C
App
Temp
°C
Dew
Point
Rel
Hum
%
Delta-T
°C
Wind Press
QNH
hPa
Press
MSL
hPa
Rain
since 9 am
mm
Dir
 
Spd
km/h
Gust
km/h
Spd
kts
Gust
kts
10/07:30pm 35.0 31.7 6.3 17 15.8 E 13 19 7 10 1010.5 1009.2 0.0
10/07:00pm 35.7 32.9 5.1 15 16.6 SSE 9 13 5 7 1010.2 1008.8 0.0
10/06:30pm 36.0 33.6 7.1 17 16.2 WNW 9 17 5 9 1010.1 1008.7 0.0
10/06:00pm 35.6 33.5 5.9 16 16.3 WSW 6 9 3 5 1010.2 1008.8 0.0
10/05:30pm 35.5 31.1 4.9 15 16.5 S 17 24 9 13 1010.2 1008.8 0.0
10/05:00pm 36.1 32.2 5.4 15 16.8 S 15 26 8 14 1010.3 1008.9 0.0
10/04:30pm 36.2 31.6 5.5 15 16.8 SE 19 26 10 14 1010.6 1009.3 0.0
10/04:00pm 34.6 30.2 7.6 19 15.2 S 20 28 11 15 1011.1 1009.8 0.0
10/03:30pm 35.5 31.3 7.6 18 15.7 WSW 19 26 10 14 1011.3 1010.0 0.0
10/03:00pm 35.2 31.0 7.3 18 15.6 SSE 19 30 10 16 1011.8 1010.5 0.0
10/02:30pm 35.0 32.2 8.7 20 15.0 SE 13 28 7 15 1012.3 1011.0 0.0
10/02:00pm 34.7 31.3 7.7 19 15.2 SE 15 22 8 12 1012.8 1011.5 0.0
10/01:30pm 34.2 32.4 9.4 22 14.3 NNW 9 20 5 11 1013.2 1011.9 0.0
10/01:00pm 33.3 31.7 8.7 22 14.0 SE 7 15 4 8 1013.6 1012.3 0.0
10/12:30pm 33.6 32.8 10.9 25 13.3 W 6 13 3 7 1014.1 1012.8 0.0
10/12:00pm 31.7 29.8 10.4 27 12.3 N 11 17 6 9 1014.5 1013.3 0.0
10/11:30am 32.1 31.5 12.3 29 11.8 WNW 7 13 4 7 1015.0 1013.7 0.0
10/11:00am 30.0 28.1 10.5 30 11.2 NE 11 17 6 9 1015.2 1013.9 0.0
10/10:30am 29.2 27.3 11.7 34 10.2 N 13 20 7 11 1015.4 1014.1 0.0
10/10:00am 28.2 25.1 11.7 36 9.6 NE 19 26 10 14 1015.3 1014.0 0.0
10/09:30am 27.0 22.9 11.5 38 8.9 NE 24 32 13 17 1015.1 1013.8 0.0
10/09:00am 26.1 22.0 11.5 40 8.4 NE 24 32 13 17 1015.2 1013.9 0.0
10/08:30am 25.0 21.2 11.2 42 7.8 NE 22 32 12 17 1015.2 1013.9 0.0
10/08:00am 24.1 21.1 10.7 43 7.5 ENE 17 24 9 13 1015.2 1013.9 0.0
10/07:30am 23.0 20.7 10.4 45 7.0 ENE 13 17 7 9 1014.9 1013.6 0.0
10/07:00am 22.4 20.0 10.2 46 6.7 ENE 13 17 7 9 1014.7 1013.4 0.0
10/06:30am 22.6 20.2 10.1 45 6.9 ENE 13 15 7 8 1014.4 1013.1 0.0
10/06:00am 23.2 20.8 9.9 43 7.3 ENE 13 17 7 9 1014.1 1012.8 0.0
10/05:30am 23.3 21.0 10.4 44 7.2 ENE 13 17 7 9 1013.9 1012.6 0.0
10/05:00am 22.6 21.0 10.1 45 6.9 ENE 9 11 5 6 1013.5 1012.2 0.0
10/04:30am 22.9 21.2 10.0 44 7.1 ENE 9 11 5 6 1013.2 1011.9 0.0
10/04:00am 23.9 22.3 10.2 42 7.6 ENE 9 11 5 6 1013.1 1011.8 0.0
10/03:30am 24.4 22.8 10.3 41 7.9 NE 9 13 5 7 1013.0 1011.7 0.0
10/03:00am 24.6 23.1 10.5 41 7.9 NE 9 9 5 5 1013.1 1011.8 0.0
10/02:30am 25.2 23.6 10.3 39 8.3 ENE 9 11 5 6 1013.2 1011.9 0.0
10/02:00am 25.6 24.0 10.2 38 8.6 NE 9 11 5 6 1013.5 1012.2 0.0
10/01:30am 26.5 24.5 10.2 36 9.2 NE 11 15 6 8 1013.9 1012.6 0.0
10/01:00am 27.3 24.9 10.1 34 9.7 NE 13 19 7 10 1014.2 1012.9 0.0
10/12:30am 27.8 25.3 9.6 32 10.2 ENE 13 17 7 9 1014.4 1013.1 0.0
10/12:00am 28.0 25.4 9.3 31 10.4 ENE 13 19 7 10 1014.5 1013.3 0.0
 
Date/Time
EDT
Temp
°C
App
Temp
°C
Dew
Point
Rel
Hum
%
Delta-T
°C
Wind Press
QNH
hPa
Press
MSL
hPa
Rain
since 9 am
mm
Dir
 
Spd
km/h
Gust
km/h
Spd
kts
Gust
kts
09/11:30pm 27.4 25.3 8.3 30 10.5 NE 9 13 5 7 1014.7 1013.4 0.0
09/11:00pm 28.6 26.1 8.3 28 11.2 NE 11 13 6 7 1014.9 1013.6 0.0
09/10:30pm 28.8 26.4 8.5 28 11.2 ENE 11 13 6 7 1015.1 1013.8 0.0
09/10:00pm 29.0 26.5 8.1 27 11.5 E 11 13 6 7 1015.0 1013.7 0.0
09/09:30pm 29.7 27.6 8.2 26 11.9 E 9 11 5 6 1014.7 1013.4 0.0
09/09:00pm 31.0 28.5 8.1 24 12.7 ENE 11 15 6 8 1014.5 1013.3 0.0
09/08:30pm 32.0 29.5 8.3 23 13.3 E 11 17 6 9 1014.4 1013.1 0.0
09/08:00pm 32.9 29.5 7.7 21 14.0 ENE 15 22 8 12 1014.4 1013.1 0.0
09/07:30pm 33.9 30.4 7.0 19 14.9 E 15 20 8 11 1014.2 1012.9 0.0
09/07:00pm 34.3 30.1 7.4 19 15.0 ESE 19 32 10 17 1013.9 1012.6 0.0
09/06:30pm 34.1 30.0 6.4 18 15.2 ESE 17 28 9 15 1013.8 1012.5 0.0
09/06:00pm 34.5 29.9 6.7 18 15.4 E 20 33 11 18 1013.7 1012.4 0.0
09/05:30pm 34.8 30.7 7.8 19 15.2 E 19 28 10 15 1013.8 1012.5 0.0
09/05:00pm 35.0 31.1 7.1 18 15.6 E 17 37 9 20 1013.8 1012.5 0.0
09/04:30pm 34.5 30.3 5.9 17 15.6 ESE 17 28 9 15 1014.4 1013.1 0.0
09/04:00pm 34.2 29.4 4.8 16 15.7 E 19 30 10 16 1015.0 1013.7 0.0
09/03:30pm 34.4 29.1 5.0 16 15.8 E 22 35 12 19 1015.5 1014.2 0.0
09/03:00pm 34.0 29.8 5.5 17 15.4 E 17 30 9 16 1015.9 1014.6 0.0
09/02:30pm 34.0 29.8 5.5 17 15.4 SE 17 28 9 15 1016.5 1015.2 0.0
09/02:00pm 33.1 29.4 6.4 19 14.6 ESE 15 28 8 15 1016.8 1015.5 0.0
09/01:30pm 33.1 29.0 6.4 19 14.6 E 17 28 9 15 1017.0 1015.7 0.0
09/01:00pm 32.6 28.5 6.0 19 14.4 ENE 17 28 9 15 1017.5 1016.2 0.0
09/12:30pm 32.2 29.0 4.9 18 14.5 E 11 20 6 11 1017.9 1016.6 0.0
09/12:00pm 31.3 26.8 4.2 18 14.1 ENE 17 30 9 16 1018.3 1017.0 0.0
09/11:30am 30.1 27.3 8.5 26 12.0 E 13 24 7 13 1018.5 1017.2 0.0
09/11:00am 29.3 25.2 7.8 26 11.8 ENE 19 28 10 15 1018.6 1017.4 0.0
09/10:30am 28.6 24.6 8.3 28 11.2 NE 19 28 10 15 1018.6 1017.4 0.0
09/10:00am 28.2 23.8 7.4 27 11.2 ENE 20 28 11 15 1018.7 1017.5 0.0
09/09:30am 27.4 22.6 8.8 31 10.3 ENE 24 35 13 19 1018.6 1017.4 0.0
09/09:00am 25.9 22.1 9.7 36 9.0 ENE 20 32 11 17 1018.4 1017.1 0.0
09/08:30am 24.7 20.2 10.2 40 8.1 ENE 24 32 13 17 1018.1 1016.8 0.0
09/08:00am 24.0 20.4 10.7 43 7.4 ENE 20 28 11 15 1017.8 1016.5 0.0
09/07:30am 23.2 19.4 9.9 43 7.3 ENE 20 30 11 16 1017.6 1016.3 0.0
09/07:00am 23.0 19.7 9.4 42 7.4 ENE 17 24 9 13 1017.2 1015.9 0.0
09/06:30am 22.9 19.6 9.7 43 7.2 ENE 17 22 9 12 1016.8 1015.5 0.0
09/06:00am 22.5 19.7 10.0 45 6.9 ENE 15 20 8 11 1016.5 1015.2 0.0
09/05:30am 22.2 20.1 9.7 45 6.8 ENE 11 13 6 7 1016.3 1015.0 0.0
09/05:00am 23.2 21.1 9.6 42 7.4 ENE 11 15 6 8 1016.0 1014.7 0.0
09/04:30am 23.6 21.2 8.8 39 8.0 ENE 11 13 6 7 1015.9 1014.6 0.0
09/04:00am 24.2 21.8 8.6 37 8.4 ENE 11 17 6 9 1015.9 1014.6 0.0
09/03:30am 24.3 21.0 6.6 32 9.2 E 13 19 7 10 1015.8 1014.5 0.0
09/03:00am 24.2 20.7 5.5 30 9.6 ENE 13 17 7 9 1015.6 1014.3 0.0
09/02:30am 22.9 20.7 5.3 32 8.9 ENE 6 9 3 5 1015.6 1014.3 0.0
09/02:00am 23.0 20.6 5.4 32 8.9 NE 7 9 4 5 1015.6 1014.3 0.0
09/01:30am 23.8 21.4 5.2 30 9.4 ENE 7 9 4 5 1015.8 1014.5 0.0
09/01:00am 25.3 21.4 5.5 28 10.2 ENE 15 19 8 10 1016.0 1014.7 0.0
09/12:30am 23.5 22.6 5.9 32 9.0 CALM 0 0 0 0 1015.9 1014.6 0.0
09/12:00am 24.3 23.4 6.1 31 9.4 CALM 0 0 0 0 1015.9 1014.6 0.0
 
Date/Time
EDT
Temp
°C
App
Temp
°C
Dew
Point
Rel
Hum
%
Delta-T
°C
Wind Press
QNH
hPa
Press
MSL
hPa
Rain
since 9 am
mm
Dir
 
Spd
km/h
Gust
km/h
Spd
kts
Gust
kts
08/11:30pm 24.9 23.1 5.2 28 10.1 E 4 9 2 5 1016.0 1014.7 0.0
08/11:00pm 27.9 25.0 4.9 23 11.9 ESE 9 13 5 7 1016.0 1014.7 0.0
08/10:30pm 28.5 25.6 4.7 22 12.3 E 9 11 5 6 1016.0 1014.7 0.0
08/10:00pm 29.4 26.5 4.8 21 12.8 ESE 9 11 5 6 1015.8 1014.5 0.0
08/09:30pm 30.5 27.4 5.7 21 13.2 SE 11 17 6 9 1015.4 1014.1 0.0
08/09:00pm 31.5 28.5 5.8 20 13.8 SE 11 15 6 8 1015.1 1013.8 0.0
08/08:30pm 32.4 28.2 5.8 19 14.3 SE 17 24 9 13 1014.8 1013.5 0.0
08/08:00pm 33.3 29.1 5.8 18 14.9 SE 17 26 9 14 1014.5 1013.3 0.0
08/07:30pm 34.2 29.4 4.8 16 15.8 SE 19 24 10 13 1014.1 1012.8 0.0
08/07:00pm 34.5 29.8 5.0 16 15.9 ESE 19 28 10 15 1013.8 1012.5 0.0
08/06:30pm 35.0 30.2 5.4 16 16.1 SE 20 33 11 18 1013.7 1012.4 0.0
08/06:00pm 35.3 29.8 5.7 16 16.2 SSE 24 35 13 19 1013.7 1012.4 0.0
08/05:30pm 35.2 30.6 5.6 16 16.2 SE 19 30 10 16 1013.8 1012.5 0.0
08/05:00pm 34.6 28.8 4.2 15 16.2 SSE 24 37 13 20 1014.1 1012.8 0.0
08/04:30pm 35.1 29.7 4.6 15 16.4 SSE 22 39 12 21 1014.4 1013.1 0.0
08/04:00pm 34.8 28.4 5.3 16 16.0 SE 28 39 15 21 1014.8 1013.5 0.0
08/03:30pm 34.4 28.3 5.0 16 15.8 ESE 26 39 14 21 1015.2 1013.9 0.0
08/03:00pm 33.9 28.3 5.4 17 15.4 SE 24 33 13 18 1015.5 1014.2 0.0
08/02:30pm 33.5 27.8 5.1 17 15.2 SSE 24 35 13 19 1016.0 1014.7 0.0
08/02:00pm 34.1 29.1 6.4 18 15.2 SE 22 32 12 17 1016.5 1015.2 0.0
08/01:30pm 33.6 29.2 7.6 20 14.5 SE 20 32 11 17 1016.9 1015.6 0.0
08/01:00pm 32.9 27.2 8.4 22 13.8 SSE 28 37 15 20 1017.3 1016.0 0.0
08/12:30pm 31.4 27.4 9.0 25 12.7 ESE 20 30 11 16 1017.6 1016.3 0.0
08/12:00pm 31.4 28.4 10.7 28 12.0 ESE 17 32 9 17 1017.9 1016.6 0.0
08/11:30am 30.5 27.7 11.5 31 11.1 E 17 24 9 13 1018.2 1016.9 0.0
08/11:00am 29.4 27.1 11.9 34 10.2 E 15 22 8 12 1018.3 1017.0 0.0
08/10:30am 28.3 26.1 12.2 37 9.4 E 15 20 8 11 1018.3 1017.0 0.0
08/10:00am 27.4 25.4 12.6 40 8.7 E 15 20 8 11 1018.3 1017.0 0.0
08/09:30am 26.1 24.3 12.2 42 8.1 ESE 13 20 7 11 1018.2 1016.9 0.0
08/09:00am 25.1 23.0 12.3 45 7.4 ENE 15 22 8 12 1018.2 1016.9 0.0
08/08:30am 24.0 21.4 12.0 47 6.9 E 17 24 9 13 1018.0 1016.7 0.0
08/08:00am 23.1 21.1 12.7 52 6.0 E 15 22 8 12 1017.6 1016.3 0.0
08/07:30am 22.2 19.8 12.5 54 5.6 ENE 17 22 9 12 1017.4 1016.1 0.0
08/07:00am 21.5 19.6 11.8 54 5.5 E 13 17 7 9 1017.0 1015.7 0.0
08/06:30am 21.9 20.2 11.3 51 5.9 ENE 11 15 6 8 1016.7 1015.4 0.0
08/06:00am 22.6 20.2 11.4 49 6.3 E 15 20 8 11 1016.3 1015.0 0.0
08/05:30am 23.0 20.2 11.4 48 6.6 ENE 17 24 9 13 1015.9 1014.6 0.0
08/05:00am 22.3 20.2 11.1 49 6.3 ENE 13 19 7 10 1015.7 1014.4 0.0
08/04:30am 21.1 20.0 10.6 51 5.8 ENE 7 9 4 5 1015.5 1014.2 0.0
08/04:00am 21.0 19.5 10.5 51 5.8 NE 9 11 5 6 1015.6 1014.3 0.0
08/03:30am 21.8 20.6 10.3 48 6.3 ENE 7 9 4 5 1015.6 1014.3 0.0
08/03:00am 21.2 21.3 10.1 49 6.1 CALM 0 6 0 3 1015.7 1014.4 0.0
08/02:30am 22.0 20.6 9.5 45 6.8 E 7 9 4 5 1015.9 1014.6 0.0
08/02:00am 24.0 22.2 9.6 40 7.9 E 9 11 5 6 1016.0 1014.7 0.0
08/01:30am 24.3 22.9 9.5 39 8.1 E 7 9 4 5 1016.1 1014.8 0.0
08/01:00am 25.1 23.3 9.4 37 8.6 ESE 9 9 5 5 1016.1 1014.8 0.0
08/12:30am 25.7 23.9 9.5 36 9.0 ESE 9 11 5 6 1016.1 1014.8 0.0
08/12:00am 26.3 24.4 9.2 34 9.4 ESE 9 11 5 6 1016.0 1014.7 0.0
 
Date/Time
EDT
Temp
°C
App
Temp
°C
Dew
Point
Rel
Hum
%
Delta-T
°C
Wind Press
QNH
hPa
Press
MSL
hPa
Rain
since 9 am
mm
Dir
 
Spd
km/h
Gust
km/h
Spd
kts
Gust
kts
07/11:30pm 27.1 25.3 9.5 33 9.8 E 9 11 5 6 1015.8 1014.5 0.0
07/11:00pm 27.4 26.0 9.7 33 9.9 ESE 7 9 4 5 1015.7 1014.4 0.0
07/10:30pm 28.5 26.4 9.7 31 10.6 ESE 11 15 6 8 1015.4 1014.1 0.0
07/10:00pm 29.1 27.0 9.8 30 10.9 ESE 11 13 6 7 1015.0 1013.7 0.0
07/09:30pm 30.1 27.7 10.1 29 11.4 ESE 13 19 7 10 1014.5 1013.3 0.0
07/09:00pm 30.8 28.4 10.2 28 11.8 SE 13 20 7 11 1014.0 1012.7 0.0
07/08:30pm 31.5 28.5 10.8 28 12.0 SE 17 30 9 16 1013.7 1012.4 0.0
07/08:00pm 32.3 29.4 10.9 27 12.5 SE 17 30 9 16 1013.2 1011.9 0.0

Other Formats:

Comma delimited format used in spreadsheet applications
http://www.bom.gov.au/fwo/IDN60801/IDN60801.94710.axf

JavaScript Object Notation format (JSON) in row-major order
http://www.bom.gov.au/fwo/IDN60801/IDN60801.94710.json